createdAt,value
2022-10-08T00:00:50.051Z,75.16
2022-10-08T00:03:57.631Z,75.34
2022-10-08T00:07:03.901Z,75.27
2022-10-08T00:10:09.242Z,75.47
2022-10-08T00:13:15.156Z,75.29
2022-10-08T00:16:23.390Z,75.33
2022-10-08T00:19:29.634Z,75.37
2022-10-08T00:22:34.205Z,75.38
2022-10-08T00:25:44.443Z,75.51
2022-10-08T00:28:50.965Z,75.41
2022-10-08T00:31:57.248Z,75.57
2022-10-08T00:35:03.938Z,75.64
2022-10-08T00:38:10.312Z,75.62
2022-10-08T00:41:25.930Z,75.54
2022-10-08T00:44:54.389Z,75.66
2022-10-08T00:48:01.237Z,75.67
2022-10-08T00:51:08.225Z,75.65
2022-10-08T00:54:15.699Z,75.73
2022-10-08T00:57:23.565Z,75.76
2022-10-08T01:00:30.477Z,75.87
2022-10-08T01:03:36.571Z,75.90
2022-10-08T01:06:51.274Z,75.94
2022-10-08T01:10:07.175Z,75.86
2022-10-08T01:13:24.659Z,76.04
2022-10-08T01:16:38.778Z,75.96
2022-10-08T01:20:07.429Z,75.98
2022-10-08T01:23:31.015Z,75.95
2022-10-08T01:26:54.098Z,75.97
2022-10-08T01:30:05.961Z,75.91
2022-10-08T01:33:19.111Z,75.97
2022-10-08T01:36:27.000Z,76.21
2022-10-08T01:39:37.968Z,76.01
2022-10-08T01:42:46.342Z,75.96
2022-10-08T01:45:58.983Z,75.86
2022-10-08T01:49:10.432Z,76.12
2022-10-08T01:52:22.704Z,76.14
2022-10-08T01:55:33.123Z,76.15
2022-10-08T01:58:47.582Z,76.21
2022-10-08T02:02:00.149Z,76.22
2022-10-08T02:05:07.458Z,76.22
2022-10-08T02:08:14.506Z,76.20
2022-10-08T02:11:20.949Z,76.14
2022-10-08T02:14:29.084Z,76.23
2022-10-08T02:17:40.819Z,76.15
2022-10-08T02:20:54.360Z,76.23
2022-10-08T02:24:09.913Z,76.38
2022-10-08T02:27:18.009Z,76.31
2022-10-08T02:30:25.435Z,76.43
2022-10-08T02:33:37.732Z,76.41
2022-10-08T02:36:47.376Z,76.35
2022-10-08T02:39:59.719Z,76.31
2022-10-08T02:43:13.124Z,76.25
2022-10-08T02:46:21.872Z,76.15
2022-10-08T02:49:31.689Z,76.18
2022-10-08T02:52:41.988Z,76.35
2022-10-08T02:55:58.026Z,76.36
2022-10-08T02:59:02.948Z,76.43
2022-10-08T03:02:10.832Z,76.49
2022-10-08T03:05:20.422Z,76.55
2022-10-08T03:08:27.918Z,76.59
2022-10-08T03:11:35.398Z,76.62
2022-10-08T03:14:45.043Z,76.76
2022-10-08T03:17:51.822Z,76.62
2022-10-08T03:20:58.395Z,76.70
2022-10-08T03:24:04.751Z,76.75
2022-10-08T03:27:09.392Z,76.88
2022-10-08T03:30:16.534Z,76.83
2022-10-08T03:33:22.592Z,76.72
2022-10-08T03:36:30.033Z,76.73
2022-10-08T03:39:36.219Z,76.63
2022-10-08T03:42:42.329Z,76.83
2022-10-08T03:45:54.496Z,77.02
2022-10-08T03:49:00.693Z,77.03
2022-10-08T03:52:07.024Z,77.05
2022-10-08T03:55:11.408Z,77.19
2022-10-08T03:58:17.791Z,77.13
2022-10-08T04:01:22.498Z,77.23
2022-10-08T04:04:28.983Z,77.29
2022-10-08T04:07:33.532Z,77.38
2022-10-08T04:10:42.123Z,77.29
2022-10-08T04:13:48.508Z,77.49
2022-10-08T04:16:54.578Z,77.80
2022-10-08T04:20:00.826Z,77.83
2022-10-08T04:23:06.967Z,77.82
2022-10-08T04:26:14.522Z,77.68
2022-10-08T04:29:20.757Z,77.72
2022-10-08T04:32:25.313Z,77.82
2022-10-08T04:35:31.412Z,77.81
2022-10-08T04:38:37.742Z,77.63
2022-10-08T04:41:42.238Z,77.66
2022-10-08T04:44:48.215Z,77.70
2022-10-08T04:47:54.340Z,77.74
2022-10-08T04:51:02.077Z,77.56
2022-10-08T04:54:08.286Z,77.60
2022-10-08T04:57:14.510Z,77.56
2022-10-08T05:00:19.563Z,77.28
2022-10-08T05:03:25.767Z,77.45
2022-10-08T05:06:33.265Z,77.60
2022-10-08T05:09:39.411Z,77.57
2022-10-08T05:12:45.903Z,77.70
2022-10-08T05:15:52.297Z,77.67
2022-10-08T05:18:59.088Z,77.52
2022-10-08T05:22:05.207Z,77.57
2022-10-08T05:25:12.452Z,77.59
2022-10-08T05:28:18.553Z,77.64
2022-10-08T05:31:25.701Z,77.68
2022-10-08T05:34:31.911Z,77.76
2022-10-08T05:37:37.952Z,77.86
2022-10-08T05:40:44.035Z,77.89
2022-10-08T05:43:50.951Z,77.82
2022-10-08T05:46:57.183Z,77.91
2022-10-08T05:50:01.775Z,77.95
2022-10-08T05:53:09.359Z,78.18
2022-10-08T05:56:16.939Z,77.98
2022-10-08T05:59:24.445Z,78.07
2022-10-08T06:02:30.633Z,78.13
2022-10-08T06:05:36.814Z,78.14
2022-10-08T06:08:42.869Z,78.31
2022-10-08T06:11:50.390Z,78.31
2022-10-08T06:14:56.536Z,78.35
2022-10-08T06:18:02.815Z,78.45
2022-10-08T06:21:10.870Z,78.37
2022-10-08T06:24:17.121Z,78.54
2022-10-08T06:27:23.394Z,78.75
2022-10-08T06:30:27.974Z,78.85
2022-10-08T06:33:34.588Z,79.03
2022-10-08T06:36:40.965Z,79.16
2022-10-08T06:39:48.476Z,79.23
2022-10-08T06:42:54.814Z,79.65
2022-10-08T06:46:04.879Z,79.72
2022-10-08T06:49:12.497Z,79.82
2022-10-08T06:52:18.631Z,80.03
2022-10-08T06:55:24.893Z,80.10
2022-10-08T06:58:31.682Z,80.32
2022-10-08T07:01:38.074Z,80.54
2022-10-08T07:04:44.279Z,80.66
2022-10-08T07:07:50.354Z,80.61
2022-10-08T07:10:56.505Z,80.92
2022-10-08T07:14:02.823Z,80.99
2022-10-08T07:17:07.332Z,81.23
2022-10-08T07:20:13.473Z,81.42
2022-10-08T07:23:19.523Z,81.55
2022-10-08T07:26:26.986Z,81.80
2022-10-08T07:29:33.088Z,81.86
2022-10-08T07:32:39.130Z,82.02
2022-10-08T07:35:45.444Z,82.05
2022-10-08T07:38:54.102Z,82.35
2022-10-08T07:42:00.329Z,82.25
2022-10-08T07:45:05.079Z,82.34
2022-10-08T07:48:11.168Z,82.54
2022-10-08T07:51:19.630Z,82.63
2022-10-08T07:54:25.755Z,82.75
2022-10-08T07:57:32.053Z,82.69
2022-10-08T08:00:36.623Z,82.66
2022-10-08T08:03:42.951Z,82.90
2022-10-08T08:06:49.569Z,82.94
2022-10-08T08:09:55.736Z,83.12
2022-10-08T08:13:00.343Z,83.09
2022-10-08T08:16:08.512Z,83.09
2022-10-08T08:19:14.950Z,83.02
2022-10-08T08:22:21.203Z,83.18
2022-10-08T08:25:25.700Z,82.91
2022-10-08T08:28:32.269Z,82.92
2022-10-08T08:31:40.425Z,82.85
2022-10-08T08:34:47.127Z,82.83
2022-10-08T08:37:53.184Z,82.87
2022-10-08T08:41:11.838Z,82.79
2022-10-08T08:44:25.520Z,82.67
2022-10-08T08:47:36.736Z,82.51
2022-10-08T08:50:48.629Z,82.42
2022-10-08T08:53:55.285Z,82.42
2022-10-08T08:57:24.980Z,82.52
2022-10-08T09:00:36.415Z,82.37
2022-10-08T09:03:45.527Z,82.30
2022-10-08T09:06:53.611Z,82.27
2022-10-08T09:10:05.610Z,82.13
2022-10-08T09:13:15.678Z,82.23
2022-10-08T09:16:21.968Z,82.17
2022-10-08T09:19:28.087Z,82.01
2022-10-08T09:22:33.554Z,82.15
2022-10-08T09:25:40.216Z,82.00
2022-10-08T09:28:48.245Z,81.93
2022-10-08T09:31:54.592Z,81.76
2022-10-08T09:35:08.035Z,81.40
2022-10-08T09:38:26.368Z,81.18
2022-10-08T09:41:32.587Z,80.96
2022-10-08T09:44:45.108Z,80.96
2022-10-08T09:48:17.827Z,80.75
2022-10-08T09:51:24.727Z,80.74
2022-10-08T09:54:35.823Z,80.51
2022-10-08T09:57:47.200Z,80.18
2022-10-08T10:01:03.876Z,79.74
2022-10-08T10:04:21.629Z,79.29
2022-10-08T10:07:39.992Z,79.40
2022-10-08T10:10:48.804Z,79.26
2022-10-08T10:13:56.403Z,79.07
2022-10-08T10:17:08.483Z,78.86
2022-10-08T10:20:19.035Z,78.66
2022-10-08T10:23:29.648Z,78.26
2022-10-08T10:26:40.623Z,77.75
2022-10-08T10:29:59.279Z,77.34
2022-10-08T10:33:10.715Z,76.99
2022-10-08T10:36:20.307Z,76.78
2022-10-08T10:39:37.097Z,76.41
2022-10-08T10:42:50.742Z,76.04
2022-10-08T10:46:01.889Z,75.85
2022-10-08T10:49:15.582Z,75.74
2022-10-08T10:52:48.008Z,75.53
2022-10-08T10:56:05.297Z,75.06
2022-10-08T10:59:29.503Z,74.55
2022-10-08T11:02:44.383Z,74.07
2022-10-08T11:05:57.786Z,73.73
2022-10-08T11:09:10.535Z,73.40
2022-10-08T11:12:35.095Z,73.08
2022-10-08T11:15:47.901Z,73.16
2022-10-08T11:18:57.103Z,73.14
2022-10-08T11:22:09.528Z,72.83
2022-10-08T11:25:25.076Z,72.62
2022-10-08T11:28:44.422Z,72.13
2022-10-08T11:31:52.244Z,71.86
2022-10-08T11:35:05.227Z,71.60
2022-10-08T11:38:19.516Z,71.60
2022-10-08T11:41:33.567Z,71.07
2022-10-08T11:44:43.074Z,70.81
2022-10-08T11:47:54.603Z,70.59
2022-10-08T11:51:33.863Z,70.22
2022-10-08T11:54:42.032Z,69.70
2022-10-08T11:58:08.174Z,69.71
2022-10-08T12:01:15.853Z,69.39
2022-10-08T12:04:24.574Z,69.15
2022-10-08T12:07:37.468Z,68.85
2022-10-08T12:10:43.604Z,68.53
2022-10-08T12:14:25.973Z,68.04
2022-10-08T12:17:55.888Z,67.83
2022-10-08T12:21:41.789Z,67.51
2022-10-08T12:24:58.715Z,67.06
2022-10-08T12:28:50.680Z,66.79
2022-10-08T12:32:03.538Z,66.53
2022-10-08T12:35:25.088Z,66.00
2022-10-08T12:38:40.893Z,66.06
2022-10-08T12:41:57.324Z,65.53
2022-10-08T12:45:09.998Z,65.18
2022-10-08T12:48:29.580Z,65.09
2022-10-08T12:51:45.839Z,64.76
2022-10-08T12:54:53.786Z,64.75
2022-10-08T12:58:00.050Z,64.16
2022-10-08T13:01:07.525Z,64.27
2022-10-08T13:04:19.999Z,64.19
2022-10-08T13:07:31.152Z,63.82
2022-10-08T13:10:37.473Z,63.56
2022-10-08T13:13:50.479Z,63.61
2022-10-08T13:16:56.860Z,63.59
2022-10-08T13:20:19.374Z,63.28
2022-10-08T13:23:34.230Z,63.08
2022-10-08T13:26:45.013Z,62.72
2022-10-08T13:29:51.176Z,62.58
2022-10-08T13:33:04.988Z,62.63
2022-10-08T13:36:24.481Z,62.33
2022-10-08T13:39:34.243Z,62.39
2022-10-08T13:42:45.002Z,62.15
2022-10-08T13:45:51.212Z,62.06
2022-10-08T13:48:57.304Z,61.83
2022-10-08T13:52:03.944Z,61.72
2022-10-08T13:55:19.293Z,61.54
2022-10-08T13:58:25.743Z,61.54
2022-10-08T14:01:31.908Z,61.22
2022-10-08T14:04:38.119Z,61.14
2022-10-08T14:07:46.216Z,60.95
2022-10-08T14:10:57.672Z,60.85
2022-10-08T14:14:04.122Z,60.79
2022-10-08T14:17:10.203Z,60.90
2022-10-08T14:20:16.530Z,60.87
2022-10-08T14:23:22.699Z,60.61
2022-10-08T14:26:30.574Z,60.71
2022-10-08T14:29:36.704Z,60.87
2022-10-08T14:32:43.667Z,60.71
2022-10-08T14:35:53.684Z,60.53
2022-10-08T14:38:59.812Z,60.63
2022-10-08T14:42:06.138Z,60.68
2022-10-08T14:45:13.492Z,60.93
2022-10-08T14:48:19.690Z,60.80
2022-10-08T14:51:25.763Z,60.74
2022-10-08T14:54:31.772Z,60.83
2022-10-08T14:57:37.877Z,60.90
2022-10-08T15:00:44.025Z,60.95
2022-10-08T15:03:50.188Z,60.84
2022-10-08T15:06:56.449Z,61.00
2022-10-08T15:10:02.567Z,61.22
2022-10-08T15:13:08.931Z,61.31
2022-10-08T15:16:15.877Z,61.24
2022-10-08T15:19:24.008Z,61.34
2022-10-08T15:22:30.460Z,61.73
2022-10-08T15:25:36.630Z,62.12
2022-10-08T15:28:43.642Z,62.15
2022-10-08T15:31:52.542Z,62.46
2022-10-08T15:34:58.654Z,62.58
2022-10-08T15:38:04.787Z,62.64
2022-10-08T15:41:10.939Z,62.84
2022-10-08T15:44:19.939Z,62.93
2022-10-08T15:47:26.087Z,62.92
2022-10-08T15:50:32.204Z,63.06
2022-10-08T15:53:39.615Z,63.14
2022-10-08T15:56:45.485Z,63.21
2022-10-08T15:59:50.019Z,63.38
2022-10-08T16:02:58.338Z,63.76
2022-10-08T16:06:04.747Z,63.82
2022-10-08T16:09:10.737Z,64.03
2022-10-08T16:12:15.370Z,64.13
2022-10-08T16:15:21.699Z,64.22
2022-10-08T16:18:27.763Z,64.47
2022-10-08T16:21:35.282Z,64.73
2022-10-08T16:24:41.408Z,64.89
2022-10-08T16:27:47.647Z,65.02
2022-10-08T16:30:53.993Z,65.10
2022-10-08T16:34:01.819Z,65.33
2022-10-08T16:37:07.996Z,65.35
2022-10-08T16:40:14.623Z,65.52
2022-10-08T16:43:20.876Z,65.62
2022-10-08T16:46:28.790Z,65.69
2022-10-08T16:49:35.032Z,65.98
2022-10-08T16:52:41.118Z,66.05
2022-10-08T16:55:47.159Z,66.22
2022-10-08T16:58:53.882Z,66.49
2022-10-08T17:02:01.313Z,66.73
2022-10-08T17:05:08.733Z,66.83
2022-10-08T17:08:14.611Z,66.96
2022-10-08T17:11:21.870Z,67.07
2022-10-08T17:14:28.196Z,67.19
2022-10-08T17:17:34.103Z,67.40
2022-10-08T17:20:41.355Z,67.38
2022-10-08T17:23:48.624Z,67.61
2022-10-08T17:26:54.881Z,67.62
2022-10-08T17:30:01.172Z,67.75
2022-10-08T17:33:07.341Z,68.07
2022-10-08T17:36:15.971Z,68.12
2022-10-08T17:39:22.360Z,68.29
2022-10-08T17:42:28.590Z,68.46
2022-10-08T17:45:34.698Z,68.48
2022-10-08T17:48:40.851Z,68.48
2022-10-08T17:51:47.501Z,68.68
2022-10-08T17:54:53.546Z,68.89
2022-10-08T17:57:58.083Z,69.04
2022-10-08T18:01:10.299Z,69.20
2022-10-08T18:04:17.871Z,69.23
2022-10-08T18:07:24.007Z,69.26
2022-10-08T18:10:30.042Z,69.45
2022-10-08T18:13:34.975Z,69.54
2022-10-08T18:16:45.562Z,69.66
2022-10-08T18:19:54.200Z,69.77
2022-10-08T18:23:00.119Z,69.72
2022-10-08T18:26:18.728Z,69.81
2022-10-08T18:29:25.068Z,69.94
2022-10-08T18:32:30.915Z,70.01
2022-10-08T18:35:37.105Z,70.18
2022-10-08T18:38:44.422Z,70.33
2022-10-08T18:41:52.059Z,70.47
2022-10-08T18:44:58.363Z,70.68
2022-10-08T18:48:04.519Z,70.71
2022-10-08T18:51:13.049Z,70.72
2022-10-08T18:54:19.408Z,70.86
2022-10-08T18:57:25.628Z,70.86
2022-10-08T19:00:31.542Z,70.98
2022-10-08T19:03:37.819Z,71.14
2022-10-08T19:06:45.182Z,71.47
2022-10-08T19:09:51.261Z,71.43
2022-10-08T19:12:55.890Z,71.47
2022-10-08T19:16:05.797Z,71.63
2022-10-08T19:19:16.782Z,71.65
2022-10-08T19:22:22.992Z,71.66
2022-10-08T19:25:31.889Z,71.80
2022-10-08T19:28:39.476Z,71.94
2022-10-08T19:31:47.852Z,72.02
2022-10-08T19:34:53.984Z,72.11
2022-10-08T19:37:58.512Z,72.14
2022-10-08T19:41:07.554Z,72.24
2022-10-08T19:44:14.540Z,72.39
2022-10-08T19:47:21.000Z,72.41
2022-10-08T19:50:27.295Z,72.54
2022-10-08T19:53:34.160Z,72.55
2022-10-08T19:56:40.594Z,72.52
2022-10-08T19:59:46.680Z,72.64
2022-10-08T20:02:52.839Z,72.64
2022-10-08T20:05:57.473Z,72.69
2022-10-08T20:09:05.643Z,72.58
2022-10-08T20:12:11.727Z,72.71
2022-10-08T20:15:16.476Z,72.95
2022-10-08T20:18:22.618Z,72.97
2022-10-08T20:21:27.385Z,73.06
2022-10-08T20:24:33.635Z,73.04
2022-10-08T20:27:39.785Z,73.13
2022-10-08T20:30:44.361Z,73.27
2022-10-08T20:33:55.885Z,73.18
2022-10-08T20:37:02.565Z,73.04
2022-10-08T20:40:09.687Z,73.15
2022-10-08T20:43:15.816Z,73.29
2022-10-08T20:46:20.738Z,73.37
2022-10-08T20:49:26.899Z,73.49
2022-10-08T20:52:31.363Z,73.63
2022-10-08T20:55:39.262Z,73.79
2022-10-08T20:58:45.568Z,73.64
2022-10-08T21:01:52.628Z,73.79
2022-10-08T21:04:58.740Z,73.83
2022-10-08T21:08:04.811Z,73.96
2022-10-08T21:11:16.234Z,73.84
2022-10-08T21:14:24.174Z,73.95
2022-10-08T21:17:30.322Z,74.02
2022-10-08T21:20:38.471Z,74.15
2022-10-08T21:23:44.762Z,74.19
2022-10-08T21:26:51.045Z,74.36
2022-10-08T21:29:57.189Z,74.43
2022-10-08T21:33:01.733Z,74.58
2022-10-08T21:36:09.640Z,74.42
2022-10-08T21:39:18.721Z,74.64
2022-10-08T21:42:24.694Z,74.83
2022-10-08T21:45:30.808Z,74.78
2022-10-08T21:48:35.420Z,74.91
2022-10-08T21:51:41.755Z,74.96
2022-10-08T21:54:47.935Z,74.98
2022-10-08T21:57:52.379Z,75.03
2022-10-08T22:00:59.050Z,75.18
2022-10-08T22:04:06.697Z,75.31
2022-10-08T22:07:12.788Z,75.40
2022-10-08T22:10:17.492Z,75.45
2022-10-08T22:13:23.950Z,75.41
2022-10-08T22:16:30.049Z,75.66
2022-10-08T22:19:35.643Z,75.68
2022-10-08T22:22:41.751Z,75.73
2022-10-08T22:25:52.984Z,75.81
2022-10-08T22:28:59.954Z,75.87
2022-10-08T22:32:06.561Z,75.97
2022-10-08T22:35:13.594Z,76.15
2022-10-08T22:38:19.668Z,76.41
2022-10-08T22:41:28.233Z,76.64
2022-10-08T22:44:34.393Z,76.72
2022-10-08T22:47:38.986Z,76.70
2022-10-08T22:50:45.211Z,76.94
2022-10-08T22:53:52.244Z,76.97
2022-10-08T22:56:58.458Z,76.91
2022-10-08T23:00:05.127Z,77.14
2022-10-08T23:03:11.293Z,77.16
2022-10-08T23:06:19.670Z,77.26
2022-10-08T23:09:25.792Z,77.33
2022-10-08T23:12:30.424Z,77.41
2022-10-08T23:15:36.651Z,77.47
2022-10-08T23:18:44.924Z,77.60
2022-10-08T23:21:50.940Z,77.56
2022-10-08T23:24:57.014Z,77.62
2022-10-08T23:28:03.148Z,77.61
2022-10-08T23:31:11.448Z,77.66
2022-10-08T23:34:17.547Z,77.67
2022-10-08T23:37:22.019Z,77.81
2022-10-08T23:40:28.075Z,77.88
2022-10-08T23:43:35.388Z,77.85
2022-10-08T23:46:41.837Z,77.84
2022-10-08T23:49:47.998Z,77.93
2022-10-08T23:52:52.547Z,77.98
2022-10-08T23:55:58.730Z,78.10
2022-10-08T23:59:04.834Z,78.01
